Time,TemperatureF,DewpointF,PressureIn,WindDirection,WindDirectionDegrees,WindSpeedMPH,WindSpeedGustMPH,Humidity,HourlyPrecipIn,Conditions,Clouds,dailyrainin,SoftwareType,DateUTC
2013-03-22 00:00:00,27.8,10.7,30.02,West,274,6.0,6.0,48,0.00,,---,0.00,VWS V14.01,2013-03-22 04:00:00,
2013-03-22 00:02:00,27.8,10.7,30.02,NW,304,5.0,6.0,48,0.00,,---,0.00,VWS V14.01,2013-03-22 04:02:00,
2013-03-22 00:03:00,27.7,10.6,30.02,NW,304,7.0,7.0,48,0.00,,---,0.00,VWS V14.01,2013-03-22 04:03:00,
2013-03-22 00:09:00,27.7,11.0,30.02,NW,312,2.0,9.0,49,0.00,,---,0.00,VWS V14.01,2013-03-22 04:09:00,
2013-03-22 00:10:00,27.6,10.9,30.02,NW,319,3.0,9.0,49,0.00,,---,0.00,VWS V14.01,2013-03-22 04:10:00,
2013-03-22 00:14:00,27.4,10.8,30.02,NW,304,2.0,6.0,49,0.00,,---,0.00,VWS V14.01,2013-03-22 04:14:00,
2013-03-22 00:19:00,27.2,11.0,30.03,NW,323,2.0,6.0,50,0.00,,---,0.00,VWS V14.01,2013-03-22 04:19:00,
2013-03-22 00:20:00,27.2,11.0,30.03,NNW,330,2.0,6.0,50,0.00,,---,0.00,VWS V14.01,2013-03-22 04:20:00,
2013-03-22 00:24:00,27.1,10.9,30.03,NW,325,1.0,5.0,50,0.00,,---,0.00,VWS V14.01,2013-03-22 04:24:00,
2013-03-22 00:29:00,26.9,11.2,30.02,NW,322,2.0,5.0,51,0.00,,---,0.00,VWS V14.01,2013-03-22 04:29:00,
2013-03-22 00:30:00,26.9,11.2,30.02,NW,322,1.0,5.0,51,0.00,,---,0.00,VWS V14.01,2013-03-22 04:30:00,
2013-03-22 00:34:00,26.6,11.4,30.02,WNW,303,2.0,4.0,52,0.00,,---,0.00,VWS V14.01,2013-03-22 04:34:00,
2013-03-22 00:39:00,26.6,10.9,30.02,WNW,292,4.0,7.0,51,0.00,,---,0.00,VWS V14.01,2013-03-22 04:39:00,
2013-03-22 00:40:00,26.6,10.9,30.02,WNW,292,4.0,7.0,51,0.00,,---,0.00,VWS V14.01,2013-03-22 04:40:00,
2013-03-22 00:44:00,26.8,10.7,30.02,NW,309,2.0,7.0,50,0.00,,---,0.00,VWS V14.01,2013-03-22 04:44:00,
2013-03-22 00:49:00,26.9,10.8,30.03,WNW,288,3.0,7.0,50,0.00,,---,0.00,VWS V14.01,2013-03-22 04:49:00,
2013-03-22 00:50:00,26.9,10.8,30.03,WNW,288,3.0,7.0,50,0.00,,---,0.00,VWS V14.01,2013-03-22 04:50:00,
2013-03-22 00:55:00,26.8,10.7,30.03,NW,307,2.0,3.0,50,0.00,,---,0.00,VWS V14.01,2013-03-22 04:55:00,
2013-03-22 01:00:00,26.6,11.4,30.03,NNW,330,3.0,3.0,52,0.00,,---,0.00,VWS V14.01,2013-03-22 05:00:00,
2013-03-22 01:05:00,26.2,11.0,30.03,NW,304,1.0,3.0,52,0.00,,---,0.00,VWS V14.01,2013-03-22 05:05:00,
2013-03-22 01:10:00,26.2,11.0,30.03,WNW,292,4.0,5.0,52,0.00,,---,0.00,VWS V14.01,2013-03-22 05:10:00,
2013-03-22 01:15:00,26.2,11.4,30.03,NW,312,1.0,5.0,53,0.00,,---,0.00,VWS V14.01,2013-03-22 05:15:00,
2013-03-22 01:20:00,26.0,11.6,30.03,NW,312,1.0,2.0,54,0.00,,---,0.00,VWS V14.01,2013-03-22 05:20:00,
2013-03-22 01:26:00,25.8,11.5,30.03,NW,309,2.0,3.0,54,0.00,,---,0.00,VWS V14.01,2013-03-22 05:26:00,
2013-03-22 01:30:00,25.7,11.8,30.03,NW,309,1.0,3.0,55,0.00,,---,0.00,VWS V14.01,2013-03-22 05:30:00,
2013-03-22 01:31:00,25.6,12.1,30.03,NW,309,1.0,2.0,56,0.00,,---,0.00,VWS V14.01,2013-03-22 05:31:00,
2013-03-22 01:36:00,25.3,12.2,30.03,NW,309,2.0,2.0,57,0.00,,---,0.00,VWS V14.01,2013-03-22 05:36:00,
2013-03-22 01:40:00,25.1,12.0,30.03,NNW,333,3.0,3.0,57,0.00,,---,0.00,VWS V14.01,2013-03-22 05:40:00,
2013-03-22 01:41:00,25.0,11.9,30.03,NNW,331,2.0,3.0,57,0.00,,---,0.00,VWS V14.01,2013-03-22 05:41:00,
2013-03-22 01:46:00,24.5,12.6,30.03,NNW,328,0.0,3.0,60,0.00,,---,0.00,VWS V14.01,2013-03-22 05:46:00,
2013-03-22 01:50:00,24.4,12.5,30.03,NNW,328,1.0,3.0,60,0.00,,---,0.00,VWS V14.01,2013-03-22 05:50:00,
2013-03-22 01:52:00,24.3,12.1,30.03,NNW,340,2.0,2.0,59,0.00,,---,0.00,VWS V14.01,2013-03-22 05:52:00,
2013-03-22 01:57:00,24.3,11.7,30.03,NNW,340,3.0,4.0,58,0.00,,---,0.00,VWS V14.01,2013-03-22 05:57:00,
2013-03-22 02:00:00,24.4,11.8,30.02,NNW,347,3.0,5.0,58,0.00,,---,0.00,VWS V14.01,2013-03-22 06:00:00,
2013-03-22 02:03:00,24.5,11.5,30.02,NNW,342,4.0,5.0,57,0.00,,---,0.00,VWS V14.01,2013-03-22 06:03:00,
2013-03-22 02:08:00,24.7,11.6,30.02,North,5,3.0,6.0,57,0.00,,---,0.00,VWS V14.01,2013-03-22 06:08:00,
2013-03-22 02:10:00,24.8,11.3,30.02,NNW,345,2.0,6.0,56,0.00,,---,0.00,VWS V14.01,2013-03-22 06:10:00,
2013-03-22 02:13:00,24.9,11.4,30.02,North,5,4.0,5.0,56,0.00,,---,0.00,VWS V14.01,2013-03-22 06:13:00,
2013-03-22 02:18:00,25.1,11.6,30.01,NNW,345,4.0,6.0,56,0.00,,---,0.00,VWS V14.01,2013-03-22 06:18:00,
2013-03-22 02:20:00,25.1,11.6,30.01,NNW,335,2.0,6.0,56,0.00,,---,0.00,VWS V14.01,2013-03-22 06:20:00,
2013-03-22 02:23:00,25.1,11.2,30.01,NNW,335,2.0,3.0,55,0.00,,---,0.00,VWS V14.01,2013-03-22 06:23:00,
2013-03-22 02:28:00,25.1,13.2,30.02,NNW,329,2.0,3.0,60,0.00,,---,0.00,VWS V14.01,2013-03-22 06:28:00,
2013-03-22 02:30:00,24.9,13.7,30.02,NW,309,1.0,3.0,62,0.00,,---,0.00,VWS V14.01,2013-03-22 06:30:00,
2013-03-22 02:34:00,24.4,14.3,30.02,SW,229,3.0,3.0,65,0.00,,---,0.00,VWS V14.01,2013-03-22 06:34:00,
2013-03-22 02:39:00,23.8,13.8,30.02,SW,221,2.0,3.0,65,0.00,,---,0.00,VWS V14.01,2013-03-22 06:39:00,
2013-03-22 02:40:00,23.8,13.8,30.02,SW,221,1.0,3.0,65,0.00,,---,0.00,VWS V14.01,2013-03-22 06:40:00,
2013-03-22 02:44:00,23.4,12.7,30.02,SW,217,2.0,4.0,63,0.00,,---,0.00,VWS V14.01,2013-03-22 06:44:00,
2013-03-22 02:49:00,22.8,13.2,30.02,SSW,209,2.0,4.0,66,0.00,,---,0.00,VWS V14.01,2013-03-22 06:49:00,
2013-03-22 02:50:00,22.7,13.1,30.02,SSW,209,2.0,4.0,66,0.00,,---,0.00,VWS V14.01,2013-03-22 06:50:00,
2013-03-22 02:54:00,22.0,14.1,30.02,SW,215,3.0,3.0,71,0.00,,---,0.00,VWS V14.01,2013-03-22 06:54:00,
2013-03-22 02:59:00,21.7,12.4,30.02,West,259,2.0,3.0,67,0.00,,---,0.00,VWS V14.01,2013-03-22 06:59:00,
2013-03-22 03:00:00,21.7,12.4,30.02,West,259,2.0,3.0,67,0.00,,---,0.00,VWS V14.01,2013-03-22 07:00:00,
2013-03-22 03:05:00,22.0,12.4,30.02,West,269,0.0,2.0,66,0.00,,---,0.00,VWS V14.01,2013-03-22 07:05:00,
2013-03-22 03:10:00,22.1,12.8,30.02,West,269,1.0,2.0,67,0.00,,---,0.00,VWS V14.01,2013-03-22 07:10:00,
2013-03-22 03:15:00,22.2,12.6,30.02,West,269,0.0,2.0,66,0.00,,---,0.00,VWS V14.01,2013-03-22 07:15:00,
2013-03-22 03:20:00,22.0,13.4,30.02,West,269,1.0,2.0,69,0.00,,---,0.00,VWS V14.01,2013-03-22 07:20:00,
2013-03-22 03:25:00,21.6,13.7,30.02,West,264,2.0,3.0,71,0.00,,---,0.00,VWS V14.01,2013-03-22 07:25:00,
2013-03-22 03:30:00,21.2,13.9,30.02,SW,227,3.0,3.0,73,0.00,,---,0.00,VWS V14.01,2013-03-22 07:30:00,
2013-03-22 03:36:00,20.7,13.7,30.02,SW,227,0.0,4.0,74,0.00,,---,0.00,VWS V14.01,2013-03-22 07:36:00,
2013-03-22 03:40:00,20.7,13.4,30.02,SW,227,1.0,4.0,73,0.00,,---,0.00,VWS V14.01,2013-03-22 07:40:00,
2013-03-22 03:41:00,20.7,14.0,30.02,SW,227,2.0,2.0,75,0.00,,---,0.00,VWS V14.01,2013-03-22 07:41:00,
2013-03-22 03:46:00,20.4,14.4,30.02,SW,227,2.0,2.0,77,0.00,,---,0.00,VWS V14.01,2013-03-22 07:46:00,
2013-03-22 03:50:00,20.3,14.3,30.02,SW,227,2.0,3.0,77,0.00,,---,0.00,VWS V14.01,2013-03-22 07:50:00,
2013-03-22 03:52:00,20.2,13.9,30.02,SW,229,0.0,2.0,76,0.00,,---,0.00,VWS V14.01,2013-03-22 07:52:00,
2013-03-22 03:57:00,20.2,13.9,30.02,SW,229,1.0,2.0,76,0.00,,---,0.00,VWS V14.01,2013-03-22 07:57:00,
2013-03-22 04:00:00,20.2,14.2,30.02,SW,229,1.0,2.0,77,0.00,,---,0.00,VWS V14.01,2013-03-22 08:00:00,
2013-03-22 04:02:00,20.2,13.9,30.02,SW,230,4.0,4.0,76,0.00,,---,0.00,VWS V14.01,2013-03-22 08:02:00,
2013-03-22 04:08:00,20.3,13.7,30.02,WSW,245,1.0,4.0,75,0.00,,---,0.00,VWS V14.01,2013-03-22 08:08:00,
2013-03-22 04:10:00,20.3,13.4,30.02,WSW,245,0.0,4.0,74,0.00,,---,0.00,VWS V14.01,2013-03-22 08:10:00,
2013-03-22 04:13:00,20.4,13.1,30.02,WSW,245,0.0,1.0,73,0.00,,---,0.00,VWS V14.01,2013-03-22 08:13:00,
2013-03-22 04:18:00,20.5,13.9,30.02,WSW,245,0.0,1.0,75,0.00,,---,0.00,VWS V14.01,2013-03-22 08:18:00,
2013-03-22 04:20:00,20.6,13.9,30.02,WSW,245,0.0,1.0,75,0.00,,---,0.00,VWS V14.01,2013-03-22 08:20:00,
2013-03-22 04:23:00,20.5,14.1,30.02,WSW,245,2.0,2.0,76,0.00,,---,0.00,VWS V14.01,2013-03-22 08:23:00,
2013-03-22 04:28:00,20.1,13.8,30.02,WSW,245,0.0,3.0,76,0.00,,---,0.00,VWS V14.01,2013-03-22 08:28:00,
2013-03-22 04:30:00,20.0,14.0,30.02,WSW,245,0.0,3.0,77,0.00,,---,0.00,VWS V14.01,2013-03-22 08:30:00,
2013-03-22 04:33:00,19.8,13.5,30.02,WSW,245,2.0,2.0,76,0.00,,---,0.00,VWS V14.01,2013-03-22 08:33:00,
2013-03-22 04:39:00,19.9,13.9,30.02,SW,223,3.0,3.0,77,0.00,,---,0.00,VWS V14.01,2013-03-22 08:39:00,
2013-03-22 04:40:00,19.8,14.1,30.02,SW,223,2.0,3.0,78,0.00,,---,0.00,VWS V14.01,2013-03-22 08:40:00,
2013-03-22 04:44:00,19.4,14.0,30.02,West,262,1.0,2.0,79,0.00,,---,0.00,VWS V14.01,2013-03-22 08:44:00,
2013-03-22 04:49:00,19.5,13.5,30.02,West,262,0.0,2.0,77,0.00,,---,0.00,VWS V14.01,2013-03-22 08:49:00,
2013-03-22 04:50:00,19.5,13.5,30.02,West,262,0.0,2.0,77,0.00,,---,0.00,VWS V14.01,2013-03-22 08:50:00,
2013-03-22 04:54:00,19.7,14.3,30.02,West,262,0.0,0.0,79,0.00,,---,0.00,VWS V14.01,2013-03-22 08:54:00,
2013-03-22 04:59:00,19.8,14.4,30.03,West,262,0.0,0.0,79,0.00,,---,0.00,VWS V14.01,2013-03-22 08:59:00,
2013-03-22 05:00:00,19.8,14.4,30.03,West,262,0.0,0.0,79,0.00,,---,0.00,VWS V14.01,2013-03-22 09:00:00,
2013-03-22 05:04:00,20.0,14.6,30.02,West,262,1.0,2.0,79,0.00,,---,0.00,VWS V14.01,2013-03-22 09:04:00,
2013-03-22 05:10:00,20.4,14.4,30.03,North,355,1.0,1.0,77,0.00,,---,0.00,VWS V14.01,2013-03-22 09:10:00,
2013-03-22 05:15:00,20.5,14.4,30.03,NW,324,1.0,3.0,77,0.00,,---,0.00,VWS V14.01,2013-03-22 09:15:00,
2013-03-22 05:20:00,20.6,14.6,30.03,NW,321,1.0,2.0,77,0.00,,---,0.00,VWS V14.01,2013-03-22 09:20:00,
2013-03-22 05:25:00,20.9,13.0,30.03,NW,314,3.0,5.0,71,0.00,,---,0.00,VWS V14.01,2013-03-22 09:25:00,
2013-03-22 05:30:00,21.8,12.5,30.03,WNW,298,3.0,4.0,67,0.00,,---,0.00,VWS V14.01,2013-03-22 09:30:00,
2013-03-22 05:35:00,22.2,12.9,30.03,NW,304,3.0,4.0,67,0.00,,---,0.00,VWS V14.01,2013-03-22 09:35:00,
2013-03-22 05:40:00,22.0,12.4,30.03,WNW,302,3.0,5.0,66,0.00,,---,0.00,VWS V14.01,2013-03-22 09:40:00,
2013-03-22 05:41:00,22.0,12.4,30.03,NW,304,3.0,4.0,66,0.00,,---,0.00,VWS V14.01,2013-03-22 09:41:00,
2013-03-22 05:46:00,22.1,12.5,30.03,WNW,287,7.0,7.0,66,0.00,,---,0.00,VWS V14.01,2013-03-22 09:46:00,
2013-03-22 05:50:00,22.4,12.8,30.03,NW,321,2.0,7.0,66,0.00,,---,0.00,VWS V14.01,2013-03-22 09:50:00,
2013-03-22 05:51:00,22.3,12.7,30.03,NNW,332,4.0,4.0,66,0.00,,---,0.00,VWS V14.01,2013-03-22 09:51:00,
2013-03-22 05:56:00,22.0,12.7,30.03,NNW,348,2.0,5.0,67,0.00,,---,0.00,VWS V14.01,2013-03-22 09:56:00,
2013-03-22 06:00:00,22.1,12.1,30.03,WNW,299,0.0,6.0,65,0.00,,---,0.00,VWS V14.01,2013-03-22 10:00:00,
2013-03-22 06:02:00,22.1,12.8,30.03,East,99,3.0,5.0,67,0.00,,---,0.00,VWS V14.01,2013-03-22 10:02:00,
2013-03-22 06:07:00,21.3,13.1,30.03,SE,126,3.0,5.0,70,0.00,,---,0.00,VWS V14.01,2013-03-22 10:07:00,
2013-03-22 06:10:00,21.1,12.9,30.04,ESE,122,2.0,5.0,70,0.00,,---,0.00,VWS V14.01,2013-03-22 10:10:00,
2013-03-22 06:12:00,21.0,12.8,30.04,SE,128,2.0,3.0,70,0.00,,---,0.00,VWS V14.01,2013-03-22 10:12:00,
2013-03-22 06:18:00,20.7,13.1,30.04,SE,129,2.0,3.0,72,0.00,,---,0.00,VWS V14.01,2013-03-22 10:18:00,
2013-03-22 06:20:00,20.7,13.1,30.04,SE,129,0.0,3.0,72,0.00,,---,0.00,VWS V14.01,2013-03-22 10:20:00,
2013-03-22 06:23:00,20.7,13.1,30.04,SE,133,2.0,2.0,72,0.00,,---,0.00,VWS V14.01,2013-03-22 10:23:00,
2013-03-22 06:28:00,20.8,13.5,30.04,SSE,151,1.0,2.0,73,0.00,,---,0.00,VWS V14.01,2013-03-22 10:28:00,
2013-03-22 06:30:00,20.8,13.8,30.05,SSE,151,1.0,2.0,74,0.00,,---,0.00,VWS V14.01,2013-03-22 10:30:00,
2013-03-22 06:33:00,20.7,13.4,30.05,SSE,151,0.0,2.0,73,0.00,,---,0.00,VWS V14.01,2013-03-22 10:33:00,
2013-03-22 06:38:00,20.6,13.3,30.05,SSE,151,0.0,2.0,73,0.00,,---,0.00,VWS V14.01,2013-03-22 10:38:00,
2013-03-22 06:40:00,20.6,13.6,30.05,SSE,151,0.0,2.0,74,0.00,,---,0.00,VWS V14.01,2013-03-22 10:40:00,
2013-03-22 06:43:00,20.5,13.2,30.05,WNW,286,1.0,3.0,73,0.00,,---,0.00,VWS V14.01,2013-03-22 10:43:00,
2013-03-22 06:48:00,20.6,13.0,30.05,NW,323,0.0,3.0,72,0.00,,---,0.00,VWS V14.01,2013-03-22 10:48:00,
2013-03-22 06:50:00,20.6,13.0,30.05,WSW,253,2.0,3.0,72,0.00,,---,0.00,VWS V14.01,2013-03-22 10:50:00,
2013-03-22 06:53:00,20.4,13.1,30.06,WSW,252,2.0,2.0,73,0.00,,---,0.00,VWS V14.01,2013-03-22 10:53:00,
2013-03-22 06:59:00,20.0,13.1,30.06,SW,220,2.0,3.0,74,0.00,,---,0.00,VWS V14.01,2013-03-22 10:59:00,
2013-03-22 07:00:00,20.0,13.1,30.06,SW,220,1.0,3.0,74,0.00,,---,0.00,VWS V14.01,2013-03-22 11:00:00,
2013-03-22 07:04:00,19.9,13.0,30.06,SW,218,2.0,3.0,74,0.00,,---,0.00,VWS V14.01,2013-03-22 11:04:00,
2013-03-22 07:09:00,20.1,13.2,30.06,SW,231,1.0,6.0,74,0.00,,---,0.00,VWS V14.01,2013-03-22 11:09:00,
2013-03-22 07:10:00,20.2,13.3,30.06,SW,231,0.0,6.0,74,0.00,,---,0.00,VWS V14.01,2013-03-22 11:10:00,
2013-03-22 07:14:00,20.0,13.1,30.07,SW,231,0.0,1.0,74,0.00,,---,0.00,VWS V14.01,2013-03-22 11:14:00,
2013-03-22 07:19:00,19.9,13.0,30.07,SW,229,2.0,2.0,74,0.00,,---,0.00,VWS V14.01,2013-03-22 11:19:00,
2013-03-22 07:20:00,19.9,13.0,30.07,SW,229,2.0,2.0,74,0.00,,---,0.00,VWS V14.01,2013-03-22 11:20:00,
2013-03-22 07:24:00,19.8,12.9,30.07,SW,219,0.0,4.0,74,0.00,,---,0.00,VWS V14.01,2013-03-22 11:24:00,
2013-03-22 07:30:00,20.7,12.5,30.07,NE,35,1.0,1.0,70,0.00,,---,0.00,VWS V14.01,2013-03-22 11:30:00,
2013-03-22 07:35:00,21.4,12.2,30.07,WNW,293,1.0,4.0,67,0.00,,---,0.00,VWS V14.01,2013-03-22 11:35:00,
2013-03-22 07:40:00,22.1,12.8,30.08,WNW,284,1.0,2.0,67,0.00,,---,0.00,VWS V14.01,2013-03-22 11:40:00,
2013-03-22 07:45:00,23.2,12.1,30.08,West,270,4.0,6.0,62,0.00,,---,0.00,VWS V14.01,2013-03-22 11:45:00,
2013-03-22 07:50:00,24.6,11.9,30.08,WNW,294,3.0,6.0,58,0.00,,---,0.00,VWS V14.01,2013-03-22 11:50:00,
2013-03-22 07:55:00,25.2,12.9,30.08,WNW,300,3.0,6.0,59,0.00,,---,0.00,VWS V14.01,2013-03-22 11:55:00,
2013-03-22 08:00:00,25.4,13.1,30.09,WNW,295,1.0,2.0,59,0.00,,---,0.00,VWS V14.01,2013-03-22 12:00:00,
2013-03-22 08:05:00,25.6,12.9,30.09,SW,219,3.0,5.0,58,0.00,,---,0.00,VWS V14.01,2013-03-22 12:05:00,
2013-03-22 08:10:00,25.7,12.6,30.09,SSW,211,0.0,2.0,57,0.00,,---,0.00,VWS V14.01,2013-03-22 12:10:00,
2013-03-22 08:16:00,26.1,13.0,30.09,SSW,211,0.0,2.0,57,0.00,,---,0.00,VWS V14.01,2013-03-22 12:16:00,
2013-03-22 08:20:00,26.4,13.2,30.09,SSW,211,1.0,2.0,57,0.00,,---,0.00,VWS V14.01,2013-03-22 12:20:00,
2013-03-22 08:21:00,26.7,12.7,30.09,SSW,213,2.0,2.0,55,0.00,,---,0.00,VWS V14.01,2013-03-22 12:21:00,
2013-03-22 08:26:00,26.9,12.5,30.09,SSW,213,1.0,2.0,54,0.00,,---,0.00,VWS V14.01,2013-03-22 12:26:00,
2013-03-22 08:30:00,27.3,12.4,30.10,SSW,213,1.0,2.0,53,0.00,,---,0.00,VWS V14.01,2013-03-22 12:30:00,
2013-03-22 08:32:00,27.6,12.7,30.10,SSW,213,2.0,2.0,53,0.00,,---,0.00,VWS V14.01,2013-03-22 12:32:00,
2013-03-22 08:37:00,27.8,12.9,30.10,SSW,213,1.0,3.0,53,0.00,,---,0.00,VWS V14.01,2013-03-22 12:37:00,
2013-03-22 08:40:00,27.9,12.6,30.10,NW,314,3.0,3.0,52,0.00,,---,0.00,VWS V14.01,2013-03-22 12:40:00,
2013-03-22 08:42:00,28.1,12.3,30.10,NW,305,5.0,5.0,51,0.00,,---,0.00,VWS V14.01,2013-03-22 12:42:00,
2013-03-22 08:47:00,28.4,12.6,30.10,NNW,337,2.0,6.0,51,0.00,,---,0.00,VWS V14.01,2013-03-22 12:47:00,
2013-03-22 08:50:00,28.6,12.3,30.10,WNW,289,6.0,6.0,50,0.00,,---,0.00,VWS V14.01,2013-03-22 12:50:00,
2013-03-22 08:52:00,28.8,12.5,30.10,North,350,5.0,7.0,50,0.00,,---,0.00,VWS V14.01,2013-03-22 12:52:00,
2013-03-22 08:58:00,28.8,11.6,30.10,WNW,294,3.0,8.0,48,0.00,,---,0.00,VWS V14.01,2013-03-22 12:58:00,
2013-03-22 09:00:00,28.8,12.1,30.10,West,264,2.0,8.0,49,0.00,,---,0.00,VWS V14.01,2013-03-22 13:00:00,
2013-03-22 09:03:00,28.9,12.1,30.10,WNW,297,5.0,6.0,49,0.00,,---,0.00,VWS V14.01,2013-03-22 13:03:00,
2013-03-22 09:08:00,29.4,12.6,30.10,WNW,290,4.0,6.0,49,0.00,,---,0.00,VWS V14.01,2013-03-22 13:08:00,
2013-03-22 09:10:00,29.5,12.2,30.10,NW,321,3.0,6.0,48,0.00,,---,0.00,VWS V14.01,2013-03-22 13:10:00,
2013-03-22 09:13:00,29.8,12.0,30.10,WNW,302,2.0,6.0,47,0.00,,---,0.00,VWS V14.01,2013-03-22 13:13:00,
2013-03-22 09:18:00,30.1,11.8,30.10,WNW,301,1.0,6.0,46,0.00,,---,0.00,VWS V14.01,2013-03-22 13:18:00,
2013-03-22 09:20:00,30.1,12.3,30.10,North,350,2.0,6.0,47,0.00,,---,0.00,VWS V14.01,2013-03-22 13:20:00,
2013-03-22 09:23:00,30.3,12.0,30.10,WNW,300,3.0,7.0,46,0.00,,---,0.00,VWS V14.01,2013-03-22 13:23:00,
2013-03-22 09:28:00,30.8,13.0,30.09,WNW,303,1.0,7.0,47,0.00,,---,0.00,VWS V14.01,2013-03-22 13:28:00,
2013-03-22 09:30:00,30.9,12.6,30.09,SW,236,2.0,7.0,46,0.00,,---,0.00,VWS V14.01,2013-03-22 13:30:00,
2013-03-22 09:34:00,31.1,11.8,30.09,NNW,334,3.0,7.0,44,0.00,,---,0.00,VWS V14.01,2013-03-22 13:34:00,
2013-03-22 09:39:00,31.1,12.2,30.09,WNW,291,5.0,8.0,45,0.00,,---,0.00,VWS V14.01,2013-03-22 13:39:00,
2013-03-22 09:40:00,31.2,12.4,30.09,NW,322,2.0,8.0,45,0.00,,---,0.00,VWS V14.01,2013-03-22 13:40:00,
2013-03-22 09:44:00,30.9,11.6,30.10,NW,317,2.0,6.0,44,0.00,,---,0.00,VWS V14.01,2013-03-22 13:44:00,
2013-03-22 09:49:00,31.4,12.0,30.09,North,355,0.0,6.0,44,0.00,,---,0.00,VWS V14.01,2013-03-22 13:49:00,
2013-03-22 09:50:00,31.4,12.0,30.09,North,355,0.0,6.0,44,0.00,,---,0.00,VWS V14.01,2013-03-22 13:50:00,
2013-03-22 09:55:00,31.9,11.4,30.09,NW,325,4.0,6.0,42,0.00,,---,0.00,VWS V14.01,2013-03-22 13:55:00,
2013-03-22 10:00:00,32.3,11.8,30.09,NNW,329,4.0,6.0,42,0.00,,---,0.00,VWS V14.01,2013-03-22 14:00:00,
2013-03-22 10:05:00,32.9,12.3,30.10,NW,304,4.0,7.0,42,0.00,,---,0.00,VWS V14.01,2013-03-22 14:05:00,
2013-03-22 10:10:00,33.4,13.3,30.10,West,277,3.0,5.0,43,0.00,,---,0.00,VWS V14.01,2013-03-22 14:10:00,
2013-03-22 10:15:00,33.5,12.3,30.10,WNW,292,6.0,8.0,41,0.00,,---,0.00,VWS V14.01,2013-03-22 14:15:00,
2013-03-22 10:20:00,33.4,11.7,30.09,WNW,288,3.0,4.0,40,0.00,,---,0.00,VWS V14.01,2013-03-22 14:20:00,
2013-03-22 10:25:00,33.9,13.2,30.09,NW,306,8.0,8.0,42,0.00,,---,0.00,VWS V14.01,2013-03-22 14:25:00,
2013-03-22 10:30:00,34.3,12.5,30.09,NW,308,3.0,8.0,40,0.00,,---,0.00,VWS V14.01,2013-03-22 14:30:00,
2013-03-22 10:31:00,34.3,11.4,30.09,West,273,3.0,4.0,38,0.00,,---,0.00,VWS V14.01,2013-03-22 14:31:00,
2013-03-22 10:36:00,35.3,13.4,30.08,NNW,332,5.0,9.0,40,0.00,,---,0.00,VWS V14.01,2013-03-22 14:36:00,
2013-03-22 10:40:00,35.6,11.9,30.08,NNE,17,4.0,9.0,37,0.00,,---,0.00,VWS V14.01,2013-03-22 14:40:00,
2013-03-22 10:41:00,35.7,12.6,30.08,NNE,19,6.0,6.0,38,0.00,,---,0.00,VWS V14.01,2013-03-22 14:41:00,
2013-03-22 10:46:00,35.4,12.3,30.08,NNW,340,6.0,6.0,38,0.00,,---,0.00,VWS V14.01,2013-03-22 14:46:00,
2013-03-22 10:50:00,35.5,11.2,30.08,NW,309,6.0,10.0,36,0.00,,---,0.00,VWS V14.01,2013-03-22 14:50:00,
2013-03-22 10:51:00,35.4,11.7,30.08,West,279,8.0,8.0,37,0.00,,---,0.00,VWS V14.01,2013-03-22 14:51:00,
2013-03-22 10:56:00,35.1,11.5,30.08,NNW,340,3.0,8.0,37,0.00,,---,0.00,VWS V14.01,2013-03-22 14:56:00,
2013-03-22 11:00:00,35.7,14.3,30.08,NNW,331,2.0,8.0,41,0.00,,---,0.00,VWS V14.01,2013-03-22 15:00:00,
2013-03-22 11:01:00,36.3,12.5,30.08,NNW,341,4.0,5.0,37,0.00,,---,0.00,VWS V14.01,2013-03-22 15:01:00,
2013-03-22 11:07:00,36.4,12.6,30.08,NNW,335,4.0,7.0,37,0.00,,---,0.00,VWS V14.01,2013-03-22 15:07:00,
2013-03-22 11:10:00,36.7,11.6,30.08,NW,324,1.0,7.0,35,0.00,,---,0.00,VWS V14.01,2013-03-22 15:10:00,
2013-03-22 11:12:00,36.9,11.8,30.08,WNW,291,8.0,8.0,35,0.00,,---,0.00,VWS V14.01,2013-03-22 15:12:00,
2013-03-22 11:17:00,36.2,11.2,30.08,WSW,246,7.0,8.0,35,0.00,,---,0.00,VWS V14.01,2013-03-22 15:17:00,
2013-03-22 11:20:00,36.2,10.6,30.08,NW,311,6.0,8.0,34,0.00,,---,0.00,VWS V14.01,2013-03-22 15:20:00,
2013-03-22 11:22:00,36.7,11.6,30.08,WNW,302,5.0,8.0,35,0.00,,---,0.00,VWS V14.01,2013-03-22 15:22:00,
2013-03-22 11:28:00,37.4,10.2,30.08,WNW,291,1.0,8.0,32,0.00,,---,0.00,VWS V14.01,2013-03-22 15:28:00,
2013-03-22 11:30:00,37.7,13.2,30.08,WNW,294,4.0,8.0,36,0.00,,---,0.00,VWS V14.01,2013-03-22 15:30:00,
2013-03-22 11:33:00,38.3,11.7,30.08,NW,309,3.0,7.0,33,0.00,,---,0.00,VWS V14.01,2013-03-22 15:33:00,
2013-03-22 11:38:00,38.3,11.7,30.07,SSW,211,4.0,7.0,33,0.00,,---,0.00,VWS V14.01,2013-03-22 15:38:00,
2013-03-22 11:40:00,38.5,11.9,30.08,WSW,241,5.0,10.0,33,0.00,,---,0.00,VWS V14.01,2013-03-22 15:40:00,
2013-03-22 11:43:00,38.5,11.2,30.07,North,350,3.0,6.0,32,0.00,,---,0.00,VWS V14.01,2013-03-22 15:43:00,
2013-03-22 11:48:00,39.2,11.8,30.07,NW,323,7.0,10.0,32,0.00,,---,0.00,VWS V14.01,2013-03-22 15:48:00,
2013-03-22 11:50:00,39.3,11.9,30.07,NNW,346,7.0,10.0,32,0.00,,---,0.00,VWS V14.01,2013-03-22 15:50:00,
2013-03-22 11:54:00,39.6,10.7,30.07,NW,319,6.0,11.0,30,0.00,,---,0.00,VWS V14.01,2013-03-22 15:54:00,
2013-03-22 11:59:00,40.2,10.5,30.07,WNW,290,2.0,11.0,29,0.00,,---,0.00,VWS V14.01,2013-03-22 15:59:00,
2013-03-22 12:00:00,40.1,10.4,30.07,WNW,290,1.0,11.0,29,0.00,,---,0.00,VWS V14.01,2013-03-22 16:00:00,
2013-03-22 12:04:00,40.0,11.8,30.07,NNW,337,2.0,6.0,31,0.00,,---,0.00,VWS V14.01,2013-03-22 16:04:00,
2013-03-22 12:09:00,40.2,12.7,30.07,WSW,254,4.0,7.0,32,0.00,,---,0.00,VWS V14.01,2013-03-22 16:09:00,
2013-03-22 12:10:00,40.2,12.7,30.07,SW,235,9.0,9.0,32,0.00,,---,0.00,VWS V14.01,2013-03-22 16:10:00,
2013-03-22 12:14:00,39.9,11.7,30.07,WSW,254,6.0,9.0,31,0.00,,---,0.00,VWS V14.01,2013-03-22 16:14:00,
2013-03-22 12:19:00,39.5,11.4,30.07,West,269,1.0,9.0,31,0.00,,---,0.00,VWS V14.01,2013-03-22 16:19:00,
2013-03-22 12:20:00,39.5,14.1,30.07,West,269,1.0,9.0,35,0.00,,---,0.00,VWS V14.01,2013-03-22 16:20:00,
2013-03-22 12:24:00,39.8,13.1,30.07,WNW,282,4.0,10.0,33,0.00,,---,0.00,VWS V14.01,2013-03-22 16:24:00,
2013-03-22 12:30:00,39.9,11.7,30.06,WNW,289,3.0,3.0,31,0.00,,---,0.00,VWS V14.01,2013-03-22 16:30:00,
2013-03-22 12:35:00,40.2,11.3,30.06,NW,322,5.0,7.0,30,0.00,,---,0.00,VWS V14.01,2013-03-22 16:35:00,
2013-03-22 12:40:00,40.8,11.8,30.05,SSW,206,4.0,5.0,30,0.00,,---,0.00,VWS V14.01,2013-03-22 16:40:00,
2013-03-22 12:45:00,40.7,12.4,30.05,WSW,237,3.0,11.0,31,0.00,,---,0.00,VWS V14.01,2013-03-22 16:45:00,
2013-03-22 12:50:00,40.8,11.0,30.05,NW,321,1.0,11.0,29,0.00,,---,0.00,VWS V14.01,2013-03-22 16:50:00,
2013-03-22 12:52:00,41.0,13.4,30.05,NNW,342,5.0,6.0,32,0.00,,---,0.00,VWS V14.01,2013-03-22 16:52:00,
2013-03-22 12:57:00,41.9,12.7,30.04,NNE,23,4.0,6.0,30,0.00,,---,0.00,VWS V14.01,2013-03-22 16:57:00,
2013-03-22 13:00:00,42.4,13.9,30.04,NNW,330,4.0,8.0,31,0.00,,---,0.00,VWS V14.01,2013-03-22 17:00:00,
2013-03-22 13:02:00,42.8,12.0,30.04,NNE,18,4.0,5.0,28,0.00,,---,0.00,VWS V14.01,2013-03-22 17:02:00,
2013-03-22 13:07:00,43.1,11.4,30.04,North,5,1.0,9.0,27,0.00,,---,0.00,VWS V14.01,2013-03-22 17:07:00,
2013-03-22 13:10:00,43.0,12.9,30.04,ENE,60,3.0,9.0,29,0.00,,---,0.00,VWS V14.01,2013-03-22 17:10:00,
2013-03-22 13:12:00,43.2,13.9,30.03,East,82,3.0,5.0,30,0.00,,---,0.00,VWS V14.01,2013-03-22 17:12:00,
2013-03-22 13:17:00,43.3,13.2,30.03,East,92,3.0,7.0,29,0.00,,---,0.00,VWS V14.01,2013-03-22 17:17:00,
2013-03-22 13:20:00,43.4,12.5,30.03,SE,128,1.0,7.0,28,0.00,,---,0.00,VWS V14.01,2013-03-22 17:20:00,
2013-03-22 13:22:00,43.5,12.6,30.03,ESE,115,2.0,5.0,28,0.00,,---,0.00,VWS V14.01,2013-03-22 17:22:00,
2013-03-22 13:28:00,43.9,11.2,30.03,NNW,342,2.0,5.0,26,0.00,,---,0.00,VWS V14.01,2013-03-22 17:28:00,
2013-03-22 13:30:00,44.0,12.2,30.03,North,355,4.0,9.0,27,0.00,,---,0.00,VWS V14.01,2013-03-22 17:30:00,
2013-03-22 13:33:00,44.5,14.2,30.03,North,355,9.0,9.0,29,0.00,,---,0.00,VWS V14.01,2013-03-22 17:33:00,
2013-03-22 13:38:00,45.1,12.3,30.02,NNE,14,7.0,9.0,26,0.00,,---,0.00,VWS V14.01,2013-03-22 17:38:00,
2013-03-22 13:40:00,45.1,12.3,30.02,North,5,4.0,9.0,26,0.00,,---,0.00,VWS V14.01,2013-03-22 17:40:00,
2013-03-22 13:43:00,44.9,12.1,30.02,NW,316,5.0,8.0,26,0.00,,---,0.00,VWS V14.01,2013-03-22 17:43:00,
2013-03-22 13:49:00,45.4,12.5,30.02,NNW,334,7.0,8.0,26,0.00,,---,0.00,VWS V14.01,2013-03-22 17:49:00,
2013-03-22 13:50:00,45.4,11.6,30.02,NW,313,2.0,8.0,25,0.00,,---,0.00,VWS V14.01,2013-03-22 17:50:00,
2013-03-22 13:54:00,45.7,13.6,30.01,NNW,330,2.0,4.0,27,0.00,,---,0.00,VWS V14.01,2013-03-22 17:54:00,
2013-03-22 13:59:00,46.3,13.3,30.02,West,261,5.0,8.0,26,0.00,,---,0.00,VWS V14.01,2013-03-22 17:59:00,
2013-03-22 14:00:00,46.2,13.2,30.02,West,273,3.0,8.0,26,0.00,,---,0.00,VWS V14.01,2013-03-22 18:00:00,
2013-03-22 14:04:00,45.8,12.9,30.01,SSW,208,1.0,5.0,26,0.00,,---,0.00,VWS V14.01,2013-03-22 18:04:00,
2013-03-22 14:09:00,45.9,12.1,30.01,SSE,161,2.0,7.0,25,0.00,,---,0.00,VWS V14.01,2013-03-22 18:09:00,
2013-03-22 14:10:00,45.9,12.1,30.01,SSW,193,2.0,7.0,25,0.00,,---,0.00,VWS V14.01,2013-03-22 18:10:00,
2013-03-22 14:14:00,46.1,14.8,30.01,WNW,296,4.0,4.0,28,0.00,,---,0.00,VWS V14.01,2013-03-22 18:14:00,
2013-03-22 14:19:00,46.1,13.1,30.01,WNW,302,3.0,6.0,26,0.00,,---,0.00,VWS V14.01,2013-03-22 18:19:00,
2013-03-22 14:20:00,46.1,13.1,30.01,WNW,302,3.0,6.0,26,0.00,,---,0.00,VWS V14.01,2013-03-22 18:20:00,
2013-03-22 14:25:00,46.0,13.1,30.00,NNE,15,2.0,4.0,26,0.00,,---,0.00,VWS V14.01,2013-03-22 18:25:00,
2013-03-22 14:30:00,46.3,14.2,29.99,ENE,62,5.0,6.0,27,0.00,,---,0.00,VWS V14.01,2013-03-22 18:30:00,
2013-03-22 14:35:00,46.3,13.3,29.99,ESE,119,3.0,6.0,26,0.00,,---,0.00,VWS V14.01,2013-03-22 18:35:00,
2013-03-22 14:40:00,46.6,12.7,29.99,ENE,60,1.0,4.0,25,0.00,,---,0.00,VWS V14.01,2013-03-22 18:40:00,
2013-03-22 14:45:00,47.4,13.4,29.99,NW,319,1.0,6.0,25,0.00,,---,0.00,VWS V14.01,2013-03-22 18:45:00,
2013-03-22 14:50:00,47.9,17.2,29.98,NNW,338,3.0,5.0,29,0.00,,---,0.00,VWS V14.01,2013-03-22 18:50:00,
2013-03-22 14:56:00,48.6,14.4,29.98,North,360,4.0,6.0,25,0.00,,---,0.00,VWS V14.01,2013-03-22 18:56:00,
2013-03-22 15:00:00,49.2,12.0,29.98,NE,52,2.0,6.0,22,0.00,,---,0.00,VWS V14.01,2013-03-22 19:00:00,
2013-03-22 15:01:00,49.1,12.9,29.98,SE,140,4.0,7.0,23,0.00,,---,0.00,VWS V14.01,2013-03-22 19:01:00,
2013-03-22 15:06:00,48.6,14.4,29.98,SSE,150,7.0,10.0,25,0.00,,---,0.00,VWS V14.01,2013-03-22 19:06:00,
2013-03-22 15:10:00,48.2,14.0,29.98,SSW,192,7.0,10.0,25,0.00,,---,0.00,VWS V14.01,2013-03-22 19:10:00,
2013-03-22 15:12:00,48.0,12.0,29.98,SW,232,5.0,9.0,23,0.00,,---,0.00,VWS V14.01,2013-03-22 19:12:00,
2013-03-22 15:17:00,47.9,12.9,29.98,SW,234,4.0,9.0,24,0.00,,---,0.00,VWS V14.01,2013-03-22 19:17:00,
2013-03-22 15:20:00,48.1,14.9,29.98,SSW,202,2.0,9.0,26,0.00,,---,0.00,VWS V14.01,2013-03-22 19:20:00,
2013-03-22 15:22:00,48.4,14.2,29.98,SSE,152,2.0,5.0,25,0.00,,---,0.00,VWS V14.01,2013-03-22 19:22:00,
2013-03-22 15:27:00,49.0,15.6,29.98,SSE,153,9.0,9.0,26,0.00,,---,0.00,VWS V14.01,2013-03-22 19:27:00,
2013-03-22 15:30:00,49.1,14.8,29.98,West,259,7.0,9.0,25,0.00,,---,0.00,VWS V14.01,2013-03-22 19:30:00,
2013-03-22 15:32:00,48.9,13.7,29.97,SW,215,6.0,10.0,24,0.00,,---,0.00,VWS V14.01,2013-03-22 19:32:00,
2013-03-22 15:37:00,48.5,13.4,29.97,ESE,121,5.0,10.0,24,0.00,,---,0.00,VWS V14.01,2013-03-22 19:37:00,
2013-03-22 15:40:00,48.7,14.5,29.97,SSW,196,7.0,12.0,25,0.00,,---,0.00,VWS V14.01,2013-03-22 19:40:00,
2013-03-22 15:42:00,48.6,14.4,29.97,South,172,8.0,13.0,25,0.00,,---,0.00,VWS V14.01,2013-03-22 19:42:00,
2013-03-22 15:47:00,48.6,13.5,29.98,SSE,163,3.0,13.0,24,0.00,,---,0.00,VWS V14.01,2013-03-22 19:47:00,
2013-03-22 15:50:00,48.7,14.5,29.98,SSE,155,4.0,13.0,25,0.00,,---,0.00,VWS V14.01,2013-03-22 19:50:00,
2013-03-22 15:53:00,48.8,16.3,29.98,ESE,119,7.0,8.0,27,0.00,,---,0.00,VWS V14.01,2013-03-22 19:53:00,
2013-03-22 15:58:00,49.0,15.6,29.98,SSE,164,2.0,10.0,26,0.00,,---,0.00,VWS V14.01,2013-03-22 19:58:00,
2013-03-22 16:00:00,49.1,15.7,29.98,ESE,119,4.0,10.0,26,0.00,,---,0.00,VWS V14.01,2013-03-22 20:00:00,
2013-03-22 16:03:00,49.2,16.7,29.98,South,174,5.0,9.0,27,0.00,,---,0.00,VWS V14.01,2013-03-22 20:03:00,
2013-03-22 16:08:00,49.4,15.1,29.98,ESE,110,8.0,12.0,25,0.00,,---,0.00,VWS V14.01,2013-03-22 20:08:00,
2013-03-22 16:10:00,49.4,15.1,29.98,ESE,110,5.0,12.0,25,0.00,,---,0.00,VWS V14.01,2013-03-22 20:10:00,
2013-03-22 16:13:00,49.3,14.1,29.98,West,267,4.0,7.0,24,0.00,,---,0.00,VWS V14.01,2013-03-22 20:13:00,
2013-03-22 16:18:00,49.4,15.1,29.98,SSE,167,5.0,12.0,25,0.00,,---,0.00,VWS V14.01,2013-03-22 20:18:00,
2013-03-22 16:20:00,49.4,15.1,29.98,ESE,113,3.0,12.0,25,0.00,,---,0.00,VWS V14.01,2013-03-22 20:20:00,
2013-03-22 16:24:00,49.4,14.1,29.97,East,99,3.0,7.0,24,0.00,,---,0.00,VWS V14.01,2013-03-22 20:24:00,
2013-03-22 16:29:00,49.3,15.9,29.97,SE,128,4.0,10.0,26,0.00,,---,0.00,VWS V14.01,2013-03-22 20:29:00,
2013-03-22 16:30:00,49.3,15.9,29.97,East,95,6.0,10.0,26,0.00,,---,0.00,VWS V14.01,2013-03-22 20:30:00,
2013-03-22 16:34:00,49.7,15.3,29.96,SE,144,6.0,12.0,25,0.00,,---,0.00,VWS V14.01,2013-03-22 20:34:00,
2013-03-22 16:39:00,50.4,17.7,29.97,SE,144,4.0,12.0,27,0.00,,---,0.00,VWS V14.01,2013-03-22 20:39:00,
2013-03-22 16:40:00,50.5,16.0,29.97,SE,142,8.0,12.0,25,0.00,,---,0.00,VWS V14.01,2013-03-22 20:40:00,
2013-03-22 16:44:00,50.2,16.6,29.97,East,98,9.0,12.0,26,0.00,,---,0.00,VWS V14.01,2013-03-22 20:44:00,
2013-03-22 16:49:00,50.4,15.9,29.97,South,184,5.0,12.0,25,0.00,,---,0.00,VWS V14.01,2013-03-22 20:49:00,
2013-03-22 16:50:00,50.4,15.9,29.97,South,184,5.0,12.0,25,0.00,,---,0.00,VWS V14.01,2013-03-22 20:50:00,
2013-03-22 16:54:00,50.6,17.0,29.97,SSE,148,5.0,9.0,26,0.00,,---,0.00,VWS V14.01,2013-03-22 20:54:00,
2013-03-22 17:00:00,50.3,14.9,29.97,SE,130,6.0,7.0,24,0.00,,---,0.00,VWS V14.01,2013-03-22 21:00:00,
2013-03-22 17:05:00,50.3,16.7,29.97,ESE,119,3.0,8.0,26,0.00,,---,0.00,VWS V14.01,2013-03-22 21:05:00,
2013-03-22 17:10:00,50.6,16.1,29.97,ESE,110,8.0,10.0,25,0.00,,---,0.00,VWS V14.01,2013-03-22 21:10:00,
2013-03-22 17:15:00,50.6,17.0,29.96,SSE,159,7.0,11.0,26,0.00,,---,0.00,VWS V14.01,2013-03-22 21:15:00,
2013-03-22 17:20:00,51.0,15.5,29.96,SE,134,7.0,11.0,24,0.00,,---,0.00,VWS V14.01,2013-03-22 21:20:00,
2013-03-22 17:21:00,51.0,15.5,29.96,SE,137,3.0,7.0,24,0.00,,---,0.00,VWS V14.01,2013-03-22 21:21:00,
2013-03-22 17:26:00,51.1,13.6,29.96,SW,222,6.0,12.0,22,0.00,,---,0.00,VWS V14.01,2013-03-22 21:26:00,
2013-03-22 17:30:00,51.3,15.8,29.96,South,176,3.0,12.0,24,0.00,,---,0.00,VWS V14.01,2013-03-22 21:30:00,
2013-03-22 17:31:00,51.4,14.9,29.96,SE,143,5.0,5.0,23,0.00,,---,0.00,VWS V14.01,2013-03-22 21:31:00,
2013-03-22 17:36:00,51.5,14.9,29.96,ESE,110,4.0,8.0,23,0.00,,---,0.00,VWS V14.01,2013-03-22 21:36:00,
2013-03-22 17:40:00,51.4,14.9,29.96,South,175,1.0,8.0,23,0.00,,---,0.00,VWS V14.01,2013-03-22 21:40:00,
2013-03-22 17:42:00,51.5,14.9,29.96,WSW,238,3.0,7.0,23,0.00,,---,0.00,VWS V14.01,2013-03-22 21:42:00,
2013-03-22 17:47:00,52.1,15.4,29.95,SSE,155,3.0,7.0,23,0.00,,---,0.00,VWS V14.01,2013-03-22 21:47:00,
2013-03-22 17:50:00,52.2,16.5,29.95,South,180,4.0,7.0,24,0.00,,---,0.00,VWS V14.01,2013-03-22 21:50:00,
2013-03-22 17:52:00,52.4,15.7,29.95,South,190,6.0,6.0,23,0.00,,---,0.00,VWS V14.01,2013-03-22 21:52:00,
2013-03-22 17:58:00,52.4,14.7,29.95,SSE,167,2.0,7.0,22,0.00,,---,0.00,VWS V14.01,2013-03-22 21:58:00,
2013-03-22 18:00:00,52.4,15.7,29.95,SE,141,4.0,7.0,23,0.00,,---,0.00,VWS V14.01,2013-03-22 22:00:00,
2013-03-22 18:03:00,52.3,16.6,29.96,ESE,119,9.0,10.0,24,0.00,,---,0.00,VWS V14.01,2013-03-22 22:03:00,
2013-03-22 18:08:00,51.5,15.9,29.96,SE,128,5.0,10.0,24,0.00,,---,0.00,VWS V14.01,2013-03-22 22:08:00,
2013-03-22 18:10:00,51.3,15.8,29.96,SSE,165,6.0,10.0,24,0.00,,---,0.00,VWS V14.01,2013-03-22 22:10:00,
2013-03-22 18:13:00,50.9,17.2,29.96,ESE,116,4.0,7.0,26,0.00,,---,0.00,VWS V14.01,2013-03-22 22:13:00,
2013-03-22 18:18:00,50.5,17.8,29.96,SSW,194,5.0,10.0,27,0.00,,---,0.00,VWS V14.01,2013-03-22 22:18:00,
2013-03-22 18:20:00,50.4,17.7,29.96,South,172,3.0,10.0,27,0.00,,---,0.00,VWS V14.01,2013-03-22 22:20:00,
2013-03-22 18:23:00,50.1,15.7,29.96,SE,139,6.0,9.0,25,0.00,,---,0.00,VWS V14.01,2013-03-22 22:23:00,
2013-03-22 18:28:00,50.0,16.5,29.96,SE,133,4.0,9.0,26,0.00,,---,0.00,VWS V14.01,2013-03-22 22:28:00,
2013-03-22 18:30:00,49.9,16.4,29.96,SSE,150,4.0,9.0,26,0.00,,---,0.00,VWS V14.01,2013-03-22 22:30:00,
2013-03-22 18:33:00,49.8,17.2,29.96,SSW,195,3.0,4.0,27,0.00,,---,0.00,VWS V14.01,2013-03-22 22:33:00,
2013-03-22 18:39:00,49.6,17.0,29.96,SE,130,5.0,7.0,27,0.00,,---,0.00,VWS V14.01,2013-03-22 22:39:00,
2013-03-22 18:40:00,49.6,16.1,29.96,ESE,117,4.0,7.0,26,0.00,,---,0.00,VWS V14.01,2013-03-22 22:40:00,
2013-03-22 18:44:00,49.5,16.9,29.96,ESE,120,4.0,6.0,27,0.00,,---,0.00,VWS V14.01,2013-03-22 22:44:00,
2013-03-22 18:49:00,49.4,17.7,29.96,SSE,166,4.0,7.0,28,0.00,,---,0.00,VWS V14.01,2013-03-22 22:49:00,
2013-03-22 18:50:00,49.4,17.7,29.96,SSE,159,4.0,7.0,28,0.00,,---,0.00,VWS V14.01,2013-03-22 22:50:00,
2013-03-22 18:54:00,49.2,17.5,29.96,SE,138,3.0,6.0,28,0.00,,---,0.00,VWS V14.01,2013-03-22 22:54:00,
2013-03-22 18:59:00,49.0,17.3,29.96,SSE,148,2.0,6.0,28,0.00,,---,0.00,VWS V14.01,2013-03-22 22:59:00,
2013-03-22 19:00:00,49.0,17.3,29.96,SSE,148,2.0,6.0,28,0.00,,---,0.00,VWS V14.01,2013-03-22 23:00:00,
2013-03-22 19:04:00,48.7,17.9,29.97,SE,142,3.0,5.0,29,0.00,,---,0.00,VWS V14.01,2013-03-22 23:04:00,
2013-03-22 19:10:00,48.4,17.6,29.97,SSE,154,1.0,2.0,29,0.00,,---,0.00,VWS V14.01,2013-03-22 23:10:00,
2013-03-22 19:15:00,48.2,18.2,29.97,ESE,121,3.0,3.0,30,0.00,,---,0.00,VWS V14.01,2013-03-22 23:15:00,
2013-03-22 19:20:00,47.8,18.6,29.97,East,97,3.0,3.0,31,0.00,,---,0.00,VWS V14.01,2013-03-22 23:20:00,
2013-03-22 19:25:00,47.4,18.3,29.97,East,84,3.0,3.0,31,0.00,,---,0.00,VWS V14.01,2013-03-22 23:25:00,
2013-03-22 19:30:00,47.2,19.6,29.97,ENE,67,1.0,3.0,33,0.00,,---,0.00,VWS V14.01,2013-03-22 23:30:00,
2013-03-22 19:36:00,46.5,20.3,29.97,ENE,67,1.0,3.0,35,0.00,,---,0.00,VWS V14.01,2013-03-22 23:36:00,
2013-03-22 19:40:00,46.0,20.6,29.98,ENE,67,0.0,3.0,36,0.00,,---,0.00,VWS V14.01,2013-03-22 23:40:00,
2013-03-22 19:41:00,45.8,20.4,29.98,ENE,67,0.0,0.0,36,0.00,,---,0.00,VWS V14.01,2013-03-22 23:41:00,
2013-03-22 19:46:00,45.4,21.9,29.98,ENE,67,0.0,0.0,39,0.00,,---,0.00,VWS V14.01,2013-03-22 23:46:00,
2013-03-22 19:50:00,44.9,22.6,29.98,ENE,67,1.0,1.0,41,0.00,,---,0.00,VWS V14.01,2013-03-22 23:50:00,
2013-03-22 19:52:00,44.5,22.9,29.98,SE,127,1.0,2.0,42,0.00,,---,0.00,VWS V14.01,2013-03-22 23:52:00,
2013-03-22 19:57:00,42.8,22.4,29.98,SE,134,1.0,2.0,44,0.00,,---,0.00,VWS V14.01,2013-03-22 23:57:00,
2013-03-22 20:00:00,42.3,23.0,29.99,SE,134,2.0,2.0,46,0.00,,---,0.00,VWS V14.01,2013-03-23 00:00:00,
2013-03-22 20:02:00,41.5,22.3,29.98,SW,236,2.0,3.0,46,0.00,,---,0.00,VWS V14.01,2013-03-23 00:02:00,
2013-03-22 20:07:00,40.1,22.0,29.99,SW,236,1.0,3.0,48,0.00,,---,0.00,VWS V14.01,2013-03-23 00:07:00,
2013-03-22 20:10:00,39.7,23.1,29.99,SSW,208,2.0,3.0,51,0.00,,---,0.00,VWS V14.01,2013-03-23 00:10:00,
2013-03-22 20:12:00,39.2,21.7,29.99,SW,225,3.0,5.0,49,0.00,,---,0.00,VWS V14.01,2013-03-23 00:12:00,
2013-03-22 20:17:00,39.5,21.5,29.99,SSW,207,4.0,5.0,48,0.00,,---,0.00,VWS V14.01,2013-03-23 00:17:00,
2013-03-22 20:20:00,39.5,21.5,29.99,SSW,209,3.0,5.0,48,0.00,,---,0.00,VWS V14.01,2013-03-23 00:20:00,
2013-03-22 20:22:00,39.0,22.4,29.99,SSW,211,2.0,4.0,51,0.00,,---,0.00,VWS V14.01,2013-03-23 00:22:00,
2013-03-22 20:27:00,37.9,22.8,29.99,SSW,210,2.0,4.0,54,0.00,,---,0.00,VWS V14.01,2013-03-23 00:27:00,
2013-03-22 20:30:00,37.7,22.6,29.99,SW,236,3.0,4.0,54,0.00,,---,0.00,VWS V14.01,2013-03-23 00:30:00,
2013-03-22 20:33:00,38.0,22.0,29.99,West,281,3.0,3.0,52,0.00,,---,0.00,VWS V14.01,2013-03-23 00:33:00,
2013-03-22 20:38:00,39.6,22.0,30.00,SW,228,3.0,4.0,49,0.00,,---,0.00,VWS V14.01,2013-03-23 00:38:00,
2013-03-22 20:40:00,39.7,22.6,30.00,SW,228,1.0,4.0,50,0.00,,---,0.00,VWS V14.01,2013-03-23 00:40:00,
2013-03-22 20:43:00,39.5,24.2,30.00,SW,228,0.0,3.0,54,0.00,,---,0.00,VWS V14.01,2013-03-23 00:43:00,
2013-03-22 20:48:00,39.1,23.9,30.00,SW,228,0.0,3.0,54,0.00,,---,0.00,VWS V14.01,2013-03-23 00:48:00,
2013-03-22 20:50:00,39.1,23.9,30.00,SW,228,1.0,3.0,54,0.00,,---,0.00,VWS V14.01,2013-03-23 00:50:00,
2013-03-22 20:54:00,38.6,23.8,30.00,SW,228,2.0,2.0,55,0.00,,---,0.00,VWS V14.01,2013-03-23 00:54:00,
2013-03-22 20:59:00,38.5,23.8,30.00,SW,228,0.0,2.0,55,0.00,,---,0.00,VWS V14.01,2013-03-23 00:59:00,
2013-03-22 21:00:00,38.5,23.8,30.00,SW,228,0.0,2.0,55,0.00,,---,0.00,VWS V14.01,2013-03-23 01:00:00,
2013-03-22 21:04:00,38.8,24.0,30.00,WNW,296,3.0,3.0,55,0.00,,---,0.00,VWS V14.01,2013-03-23 01:04:00,
2013-03-22 21:09:00,38.9,23.7,30.00,West,279,1.0,3.0,54,0.00,,---,0.00,VWS V14.01,2013-03-23 01:09:00,
2013-03-22 21:10:00,38.9,23.7,30.00,West,279,0.0,3.0,54,0.00,,---,0.00,VWS V14.01,2013-03-23 01:10:00,
2013-03-22 21:14:00,38.4,23.7,30.00,West,279,1.0,2.0,55,0.00,,---,0.00,VWS V14.01,2013-03-23 01:14:00,
2013-03-22 21:19:00,38.5,24.6,30.00,NW,311,2.0,3.0,57,0.00,,---,0.00,VWS V14.01,2013-03-23 01:19:00,
2013-03-22 21:20:00,38.5,25.0,30.00,WNW,288,2.0,3.0,58,0.00,,---,0.00,VWS V14.01,2013-03-23 01:20:00,
2013-03-22 21:24:00,38.2,23.9,30.00,WNW,288,1.0,2.0,56,0.00,,---,0.00,VWS V14.01,2013-03-23 01:24:00,
2013-03-22 21:29:00,37.8,24.4,30.01,WNW,288,2.0,2.0,58,0.00,,---,0.00,VWS V14.01,2013-03-23 01:29:00,
2013-03-22 21:30:00,37.8,24.4,30.01,WNW,288,1.0,2.0,58,0.00,,---,0.00,VWS V14.01,2013-03-23 01:30:00,
2013-03-22 21:34:00,37.4,24.4,30.01,WNW,288,1.0,2.0,59,0.00,,---,0.00,VWS V14.01,2013-03-23 01:34:00,
2013-03-22 21:39:00,37.6,24.6,30.01,WNW,288,0.0,2.0,59,0.00,,---,0.00,VWS V14.01,2013-03-23 01:39:00,
2013-03-22 21:40:00,37.6,24.6,30.01,WNW,288,0.0,2.0,59,0.00,,---,0.00,VWS V14.01,2013-03-23 01:40:00,
2013-03-22 21:44:00,37.9,25.3,30.01,WNW,288,0.0,2.0,60,0.00,,---,0.00,VWS V14.01,2013-03-23 01:44:00,
2013-03-22 21:49:00,37.5,25.7,30.01,WNW,286,0.0,2.0,62,0.00,,---,0.00,VWS V14.01,2013-03-23 01:49:00,
2013-03-22 21:50:00,37.5,25.7,30.01,WNW,286,0.0,2.0,62,0.00,,---,0.00,VWS V14.01,2013-03-23 01:50:00,
2013-03-22 21:55:00,36.9,24.3,30.01,WNW,284,1.0,2.0,60,0.00,,---,0.00,VWS V14.01,2013-03-23 01:55:00,
2013-03-22 22:00:00,36.1,22.8,30.01,WNW,284,1.0,1.0,58,0.00,,---,0.00,VWS V14.01,2013-03-23 02:00:00,
2013-03-22 22:05:00,35.8,24.8,30.01,WSW,242,0.0,3.0,64,0.00,,---,0.00,VWS V14.01,2013-03-23 02:05:00,
2013-03-22 22:10:00,35.6,23.5,30.01,WSW,242,1.0,1.0,61,0.00,,---,0.00,VWS V14.01,2013-03-23 02:10:00,
2013-03-22 22:15:00,35.7,24.7,30.02,WSW,242,1.0,1.0,64,0.00,,---,0.00,VWS V14.01,2013-03-23 02:15:00,
2013-03-22 22:20:00,35.9,25.3,30.02,WSW,242,0.0,0.0,65,0.00,,---,0.00,VWS V14.01,2013-03-23 02:20:00,
2013-03-22 22:25:00,35.5,25.3,30.02,WSW,237,2.0,2.0,66,0.00,,---,0.00,VWS V14.01,2013-03-23 02:25:00,
2013-03-22 22:30:00,35.2,24.3,30.02,WSW,237,0.0,2.0,64,0.00,,---,0.00,VWS V14.01,2013-03-23 02:30:00,
2013-03-22 22:31:00,35.2,24.3,30.02,WSW,237,0.0,0.0,64,0.00,,---,0.00,VWS V14.01,2013-03-23 02:31:00,
2013-03-22 22:36:00,35.2,24.3,30.02,WSW,237,0.0,2.0,64,0.00,,---,0.00,VWS V14.01,2013-03-23 02:36:00,
2013-03-22 22:40:00,35.2,24.3,30.02,WSW,237,0.0,2.0,64,0.00,,---,0.00,VWS V14.01,2013-03-23 02:40:00,
2013-03-22 22:41:00,35.3,24.0,30.02,WSW,237,0.0,0.0,63,0.00,,---,0.00,VWS V14.01,2013-03-23 02:41:00,
2013-03-22 22:46:00,35.5,24.9,30.02,WSW,237,0.0,1.0,65,0.00,,---,0.00,VWS V14.01,2013-03-23 02:46:00,
2013-03-22 22:50:00,35.5,23.8,30.02,WSW,237,0.0,1.0,62,0.00,,---,0.00,VWS V14.01,2013-03-23 02:50:00,
2013-03-22 22:52:00,35.6,25.4,30.02,WSW,237,0.0,0.0,66,0.00,,---,0.00,VWS V14.01,2013-03-23 02:52:00,
2013-03-22 22:57:00,35.8,25.6,30.03,WSW,237,0.0,1.0,66,0.00,,---,0.00,VWS V14.01,2013-03-23 02:57:00,
2013-03-22 23:00:00,35.7,25.8,30.03,WSW,237,1.0,1.0,67,0.00,,---,0.00,VWS V14.01,2013-03-23 03:00:00,
2013-03-22 23:02:00,35.9,27.4,30.02,WSW,258,1.0,2.0,71,0.00,,---,0.00,VWS V14.01,2013-03-23 03:02:00,
2013-03-22 23:07:00,36.1,27.6,30.03,WSW,258,0.0,2.0,71,0.00,,---,0.00,VWS V14.01,2013-03-23 03:07:00,
2013-03-22 23:10:00,36.2,27.4,30.03,WSW,258,1.0,2.0,70,0.00,,---,0.00,VWS V14.01,2013-03-23 03:10:00,
2013-03-22 23:12:00,36.2,27.4,30.03,WSW,258,0.0,1.0,70,0.00,,---,0.00,VWS V14.01,2013-03-23 03:12:00,
2013-03-22 23:17:00,36.0,26.1,30.03,WSW,258,0.0,1.0,67,0.00,,---,0.00,VWS V14.01,2013-03-23 03:17:00,
2013-03-22 23:20:00,36.0,26.1,30.02,WSW,258,0.0,1.0,67,0.00,,---,0.00,VWS V14.01,2013-03-23 03:20:00,
2013-03-22 23:22:00,35.9,25.3,30.03,WSW,258,0.0,1.0,65,0.00,,---,0.00,VWS V14.01,2013-03-23 03:22:00,
2013-03-22 23:28:00,35.6,25.4,30.03,WSW,258,0.0,1.0,66,0.00,,---,0.00,VWS V14.01,2013-03-23 03:28:00,
2013-03-22 23:30:00,35.6,25.0,30.03,WSW,258,0.0,1.0,65,0.00,,---,0.00,VWS V14.01,2013-03-23 03:30:00,
2013-03-22 23:33:00,35.5,26.0,30.03,WSW,258,0.0,2.0,68,0.00,,---,0.00,VWS V14.01,2013-03-23 03:33:00,
2013-03-22 23:38:00,35.4,25.9,30.03,WSW,258,0.0,2.0,68,0.00,,---,0.00,VWS V14.01,2013-03-23 03:38:00,
2013-03-22 23:40:00,35.3,26.5,30.03,WSW,258,0.0,2.0,70,0.00,,---,0.00,VWS V14.01,2013-03-23 03:40:00,
2013-03-22 23:43:00,35.2,26.1,30.03,WSW,258,0.0,1.0,69,0.00,,---,0.00,VWS V14.01,2013-03-23 03:43:00,
2013-03-22 23:48:00,35.2,25.4,30.03,WSW,258,0.0,1.0,67,0.00,,---,0.00,VWS V14.01,2013-03-23 03:48:00,
2013-03-22 23:50:00,35.2,25.7,30.03,WSW,258,1.0,2.0,68,0.00,,---,0.00,VWS V14.01,2013-03-23 03:50:00,
2013-03-22 23:54:00,35.2,25.4,30.03,WSW,258,2.0,2.0,67,0.00,,---,0.00,VWS V14.01,2013-03-23 03:54:00,
2013-03-22 23:59:00,34.8,26.0,30.03,WSW,258,1.0,3.0,70,0.00,,---,0.00,VWS V14.01,2013-03-23 03:59:00,